createdAt,value
2022-08-17T00:02:26.304Z,7.30
2022-08-17T00:04:55.363Z,6.73
2022-08-17T00:07:22.977Z,7.57
2022-08-17T00:09:49.764Z,7.10
2022-08-17T00:12:41.176Z,6.47
2022-08-17T00:15:04.502Z,6.30
2022-08-17T00:17:31.280Z,6.70
2022-08-17T00:19:57.996Z,7.33
2022-08-17T00:22:31.592Z,6.93
2022-08-17T00:25:03.615Z,7.73
2022-08-17T00:27:30.342Z,6.70
2022-08-17T00:29:57.206Z,7.77
2022-08-17T00:33:12.526Z,7.40
2022-08-17T00:35:13.997Z,8.00
2022-08-17T00:37:40.791Z,7.83
2022-08-17T00:40:10.018Z,7.53
2022-08-17T00:42:37.170Z,7.17
2022-08-17T00:45:06.185Z,7.10
2022-08-17T00:47:32.937Z,7.53
2022-08-17T00:49:59.799Z,7.80
2022-08-17T00:52:33.169Z,8.83
2022-08-17T00:55:00.909Z,8.90
2022-08-17T00:57:42.452Z,8.17
2022-08-17T01:00:16.917Z,8.43
2022-08-17T01:02:46.502Z,7.93
2022-08-17T01:05:19.032Z,7.50
2022-08-17T01:07:49.331Z,8.57
2022-08-17T01:10:59.823Z,9.83
2022-08-17T01:13:07.011Z,9.30
2022-08-17T01:15:39.868Z,8.37
2022-08-17T01:18:09.553Z,7.67
2022-08-17T01:20:47.834Z,8.60
2022-08-17T01:23:19.895Z,8.67
2022-08-17T01:25:54.436Z,8.57
2022-08-17T01:28:52.581Z,9.23
2022-08-17T01:31:10.089Z,9.00
2022-08-17T01:33:37.263Z,9.53
2022-08-17T01:36:07.228Z,9.63
2022-08-17T01:38:36.060Z,8.93
2022-08-17T01:41:12.410Z,8.70
2022-08-17T01:44:01.920Z,10.00
2022-08-17T01:46:33.407Z,8.43
2022-08-17T01:49:01.164Z,9.17
2022-08-17T01:51:32.718Z,9.27
2022-08-17T01:54:05.234Z,9.90
2022-08-17T01:56:34.069Z,9.57
2022-08-17T01:59:01.053Z,8.43
2022-08-17T02:01:31.541Z,9.73
2022-08-17T02:04:01.110Z,9.30
2022-08-17T02:06:31.658Z,9.80
2022-08-17T02:09:18.012Z,8.93
2022-08-17T02:11:45.339Z,9.63
2022-08-17T02:14:13.381Z,9.87
2022-08-17T02:16:41.385Z,9.10
2022-08-17T02:19:12.163Z,9.87
2022-08-17T02:21:40.555Z,9.60
2022-08-17T02:24:10.901Z,10.27
2022-08-17T02:26:37.792Z,9.83
2022-08-17T02:29:04.830Z,8.60
2022-08-17T02:31:31.972Z,8.97
2022-08-17T02:34:03.874Z,9.57
2022-08-17T02:36:33.896Z,11.00
2022-08-17T02:39:10.280Z,10.00
2022-08-17T02:41:37.605Z,8.87
2022-08-17T02:44:05.839Z,9.60
2022-08-17T02:46:32.775Z,10.10
2022-08-17T02:48:59.940Z,10.47
2022-08-17T02:51:27.303Z,9.03
2022-08-17T02:54:35.575Z,10.03
2022-08-17T02:56:41.032Z,9.90
2022-08-17T02:59:07.824Z,10.63
2022-08-17T03:01:34.765Z,10.03
2022-08-17T03:04:01.541Z,10.07
2022-08-17T03:06:29.224Z,9.70
2022-08-17T03:08:55.948Z,9.90
2022-08-17T03:11:23.553Z,9.70
2022-08-17T03:13:50.411Z,10.20
2022-08-17T03:16:17.179Z,10.80
2022-08-17T03:18:44.065Z,9.60
2022-08-17T03:21:11.025Z,8.30
2022-08-17T03:23:41.098Z,10.50
2022-08-17T03:26:12.300Z,8.70
2022-08-17T03:28:42.735Z,9.80
2022-08-17T03:31:09.677Z,10.90
2022-08-17T03:33:36.433Z,10.67
2022-08-17T03:36:03.482Z,10.47
2022-08-17T03:38:30.394Z,9.87
2022-08-17T03:41:07.197Z,10.37
2022-08-17T03:43:34.647Z,9.97
2022-08-17T03:46:29.040Z,10.60
2022-08-17T03:49:25.872Z,9.80
2022-08-17T03:52:12.502Z,9.57
2022-08-17T03:54:58.763Z,9.53
2022-08-17T03:57:26.034Z,10.63
2022-08-17T03:59:54.504Z,10.00
2022-08-17T04:02:30.087Z,10.10
2022-08-17T04:04:57.360Z,9.30
2022-08-17T04:07:27.511Z,10.30
2022-08-17T04:09:54.346Z,10.23
2022-08-17T04:12:23.135Z,10.60
2022-08-17T04:14:53.124Z,11.90
2022-08-17T04:17:27.934Z,9.97
2022-08-17T04:19:55.771Z,10.10
2022-08-17T04:22:30.292Z,10.67
2022-08-17T04:25:01.759Z,10.93
2022-08-17T04:27:28.512Z,11.10
2022-08-17T04:29:56.097Z,10.33
2022-08-17T04:33:03.383Z,11.10
2022-08-17T04:35:10.228Z,9.43
2022-08-17T04:37:37.008Z,10.17
2022-08-17T04:40:23.075Z,11.23
2022-08-17T04:43:03.945Z,10.57
2022-08-17T04:45:32.243Z,11.63
2022-08-17T04:48:00.228Z,10.00
2022-08-17T04:50:27.603Z,10.53
2022-08-17T04:52:54.544Z,10.80
2022-08-17T04:55:21.695Z,11.30
2022-08-17T04:57:48.472Z,10.33
2022-08-17T05:00:15.519Z,9.83
2022-08-17T05:02:50.729Z,11.03
2022-08-17T05:05:27.255Z,10.07
2022-08-17T05:07:57.918Z,10.50
2022-08-17T05:10:26.317Z,10.80
2022-08-17T05:13:01.074Z,10.63
2022-08-17T05:15:29.296Z,10.80
2022-08-17T05:18:00.316Z,10.77
2022-08-17T05:20:27.517Z,11.80
2022-08-17T05:22:59.605Z,10.50
2022-08-17T05:25:29.845Z,11.80
2022-08-17T05:27:59.760Z,11.50
2022-08-17T05:30:28.968Z,11.77
2022-08-17T05:33:11.132Z,11.23
2022-08-17T05:35:40.135Z,10.80
2022-08-17T05:38:08.252Z,11.90
2022-08-17T05:40:36.388Z,10.97
2022-08-17T05:43:33.915Z,11.20
2022-08-17T05:46:06.645Z,11.65
2022-08-17T05:48:42.251Z,11.77
2022-08-17T05:51:27.601Z,11.50
2022-08-17T05:54:24.812Z,10.83
2022-08-17T05:57:03.537Z,11.07
2022-08-17T05:59:44.541Z,10.50
2022-08-17T06:02:24.465Z,11.00
2022-08-17T06:05:00.029Z,10.33
2022-08-17T06:07:38.891Z,9.83
2022-08-17T06:10:20.983Z,10.97
2022-08-17T06:13:08.968Z,8.80
2022-08-17T06:16:31.145Z,8.70
2022-08-17T06:19:06.870Z,9.67
2022-08-17T06:21:38.792Z,9.83
2022-08-17T06:24:24.168Z,10.97
2022-08-17T06:26:52.199Z,9.30
2022-08-17T06:29:31.023Z,9.80
2022-08-17T06:31:57.771Z,9.30
2022-08-17T06:34:24.600Z,8.90
2022-08-17T06:37:00.326Z,8.87
2022-08-17T06:39:35.995Z,9.17
2022-08-17T06:42:54.116Z,8.77
2022-08-17T06:45:35.854Z,9.10
2022-08-17T06:48:10.139Z,8.60
2022-08-17T06:50:47.049Z,9.10
2022-08-17T06:53:32.848Z,9.57
2022-08-17T06:56:10.050Z,12.00
2022-08-17T06:58:40.207Z,9.37
2022-08-17T07:01:19.139Z,9.30
2022-08-17T07:04:11.779Z,8.37
2022-08-17T07:06:52.383Z,8.90
2022-08-17T07:09:28.136Z,9.00
2022-08-17T07:12:22.235Z,9.00
2022-08-17T07:15:01.028Z,8.57
2022-08-17T07:17:46.620Z,8.07
2022-08-17T07:20:22.646Z,9.90
2022-08-17T07:23:00.453Z,8.80
2022-08-17T07:25:28.511Z,12.27
2022-08-17T07:28:00.237Z,9.10
2022-08-17T07:30:47.604Z,7.87
2022-08-17T07:33:30.071Z,9.10
2022-08-17T07:35:58.062Z,8.23
2022-08-17T07:38:31.156Z,9.00
2022-08-17T07:40:58.220Z,7.63
2022-08-17T07:43:31.814Z,7.70
2022-08-17T07:46:17.902Z,7.33
2022-08-17T07:48:52.226Z,7.87
2022-08-17T07:51:30.304Z,6.97
2022-08-17T07:54:22.221Z,5.57
2022-08-17T07:56:54.971Z,6.47
2022-08-17T07:59:34.095Z,6.97
2022-08-17T08:02:05.225Z,5.93
2022-08-17T08:04:59.849Z,5.17
2022-08-17T08:07:35.196Z,4.50
2022-08-17T08:10:09.269Z,5.60
2022-08-17T08:12:47.636Z,5.27
2022-08-17T08:15:23.725Z,4.90
2022-08-17T08:17:56.522Z,4.90
2022-08-17T08:20:53.888Z,4.10
2022-08-17T08:23:53.742Z,5.30
2022-08-17T08:26:35.529Z,5.43
2022-08-17T08:29:08.312Z,4.50
2022-08-17T08:32:03.430Z,4.47
2022-08-17T08:35:07.680Z,4.23
2022-08-17T08:37:51.424Z,4.13
2022-08-17T08:40:32.829Z,4.30
2022-08-17T08:43:03.859Z,3.90
2022-08-17T08:45:50.743Z,4.50
2022-08-17T08:48:56.640Z,4.63
2022-08-17T08:52:12.750Z,4.03
2022-08-17T08:54:56.660Z,5.17
2022-08-17T08:57:34.171Z,4.93
2022-08-17T09:00:21.235Z,19.90
2022-08-17T09:03:14.479Z,4.77
2022-08-17T09:06:06.733Z,4.13
2022-08-17T09:09:15.554Z,4.93
2022-08-17T09:12:02.779Z,4.67
2022-08-17T09:15:10.833Z,5.30
2022-08-17T09:17:49.523Z,9.33
2022-08-17T09:20:36.909Z,10.27
2022-08-17T09:23:09.865Z,4.90
2022-08-17T09:26:02.942Z,4.83
2022-08-17T09:28:35.121Z,5.10
2022-08-17T09:31:11.588Z,4.90
2022-08-17T09:33:44.744Z,5.00
2022-08-17T09:36:11.500Z,3.97
2022-08-17T09:39:15.015Z,4.70
2022-08-17T09:42:00.524Z,4.70
2022-08-17T09:44:36.176Z,6.63
2022-08-17T09:47:22.560Z,5.27
2022-08-17T09:49:56.353Z,4.87
2022-08-17T09:52:26.399Z,4.90
2022-08-17T09:54:55.695Z,6.60
2022-08-17T09:57:43.230Z,5.37
2022-08-17T10:00:25.107Z,5.53
2022-08-17T10:03:16.741Z,6.10
2022-08-17T10:06:00.240Z,5.13
2022-08-17T10:08:51.915Z,6.30
2022-08-17T10:12:04.381Z,6.33
2022-08-17T10:15:08.084Z,5.77
2022-08-17T10:17:45.432Z,6.73
2022-08-17T10:20:15.199Z,6.63
2022-08-17T10:23:19.636Z,6.57
2022-08-17T10:26:14.699Z,6.23
2022-08-17T10:28:44.384Z,6.90
2022-08-17T10:31:34.289Z,5.67
2022-08-17T10:34:20.667Z,6.90
2022-08-17T10:36:50.440Z,5.93
2022-08-17T10:39:33.413Z,7.03
2022-08-17T10:42:15.638Z,8.80
2022-08-17T10:45:29.431Z,6.83
2022-08-17T10:48:06.143Z,8.70
2022-08-17T10:50:49.686Z,7.73
2022-08-17T10:53:31.877Z,7.57
2022-08-17T10:56:13.783Z,8.27
2022-08-17T10:58:57.194Z,8.13
2022-08-17T11:01:33.114Z,8.50
2022-08-17T11:04:30.581Z,8.73
2022-08-17T11:07:14.666Z,9.70
2022-08-17T11:09:50.262Z,11.60
2022-08-17T11:12:45.840Z,8.20
2022-08-17T11:15:23.804Z,9.80
2022-08-17T11:18:01.418Z,9.00
2022-08-17T11:20:52.633Z,9.10
2022-08-17T11:23:19.656Z,9.70
2022-08-17T11:25:53.090Z,9.10
2022-08-17T11:28:25.283Z,10.40
2022-08-17T11:30:56.240Z,10.50
2022-08-17T11:33:29.179Z,10.17
2022-08-17T11:36:19.095Z,9.70
2022-08-17T11:39:07.430Z,11.20
2022-08-17T11:42:19.990Z,9.47
2022-08-17T11:45:00.664Z,10.63
2022-08-17T11:48:27.930Z,12.43
2022-08-17T11:51:25.430Z,10.37
2022-08-17T11:54:14.678Z,10.47
2022-08-17T11:56:49.912Z,11.83
2022-08-17T11:59:39.459Z,12.47
2022-08-17T12:02:35.230Z,11.10
2022-08-17T12:05:26.110Z,12.87
2022-08-17T12:08:19.724Z,13.77
2022-08-17T12:11:06.364Z,14.57
2022-08-17T12:13:45.183Z,11.80
2022-08-17T12:16:20.097Z,13.60
2022-08-17T12:18:58.569Z,15.07
2022-08-17T12:21:45.009Z,13.87
2022-08-17T12:24:25.582Z,15.83
2022-08-17T12:27:01.037Z,15.60
2022-08-17T12:29:38.387Z,17.77
2022-08-17T12:32:07.098Z,16.93
2022-08-17T12:34:39.831Z,19.93
2022-08-17T12:37:23.098Z,21.73
2022-08-17T12:40:06.454Z,20.90
2022-08-17T12:42:37.463Z,19.50
2022-08-17T12:45:22.624Z,18.80
2022-08-17T12:47:59.010Z,17.80
2022-08-17T12:50:28.266Z,19.70
2022-08-17T12:53:01.619Z,17.00
2022-08-17T12:55:32.561Z,16.60
2022-08-17T12:58:01.970Z,18.50
2022-08-17T13:00:33.712Z,18.03
2022-08-17T13:03:22.551Z,18.23
2022-08-17T13:05:52.367Z,19.43
2022-08-17T13:08:27.984Z,16.27
2022-08-17T13:11:03.638Z,17.70
2022-08-17T13:13:36.987Z,19.63
2022-08-17T13:16:11.338Z,20.50
2022-08-17T13:19:04.775Z,19.47
2022-08-17T13:21:33.203Z,19.03
2022-08-17T13:24:13.667Z,19.80
2022-08-17T13:27:01.403Z,19.60
2022-08-17T13:29:38.924Z,20.07
2022-08-17T13:32:08.501Z,17.73
2022-08-17T13:35:12.648Z,15.30
2022-08-17T13:37:36.178Z,19.83
2022-08-17T13:40:11.968Z,21.50
2022-08-17T13:42:52.931Z,18.00
2022-08-17T13:45:35.563Z,16.70
2022-08-17T13:48:12.427Z,20.90
2022-08-17T13:50:59.556Z,18.40
2022-08-17T13:53:33.593Z,19.10
2022-08-17T13:56:34.951Z,17.70
2022-08-17T13:59:52.792Z,19.03
2022-08-17T14:02:19.180Z,18.53
2022-08-17T14:04:47.654Z,19.33
2022-08-17T14:07:15.947Z,18.70
2022-08-17T14:09:55.623Z,21.03
2022-08-17T14:12:26.123Z,18.77
2022-08-17T14:14:54.971Z,18.40
2022-08-17T14:17:23.006Z,18.87
2022-08-17T14:19:50.973Z,21.30
2022-08-17T14:22:26.981Z,19.00
2022-08-17T14:24:54.159Z,20.27
2022-08-17T14:27:21.820Z,20.80
2022-08-17T14:29:48.729Z,22.03
2022-08-17T14:32:32.053Z,21.70
2022-08-17T14:34:59.970Z,21.57
2022-08-17T14:37:28.497Z,23.47
2022-08-17T14:40:01.460Z,21.97
2022-08-17T14:42:31.331Z,23.90
2022-08-17T14:44:59.460Z,23.60
2022-08-17T14:47:26.692Z,21.07
2022-08-17T14:49:53.743Z,22.40
2022-08-17T14:52:21.790Z,22.50
2022-08-17T14:54:52.837Z,19.77
2022-08-17T14:57:26.178Z,24.50
2022-08-17T15:00:01.881Z,25.37
2022-08-17T15:02:30.896Z,31.27
2022-08-17T15:05:05.766Z,28.83
2022-08-17T15:07:32.604Z,28.57
2022-08-17T15:10:01.495Z,29.20
2022-08-17T15:12:33.067Z,30.60
2022-08-17T15:15:01.055Z,31.10
2022-08-17T15:17:43.882Z,30.30
2022-08-17T15:20:17.674Z,29.80
2022-08-17T15:22:45.817Z,29.97
2022-08-17T15:25:14.224Z,29.10
2022-08-17T15:27:41.615Z,30.20
2022-08-17T15:30:09.993Z,31.30
2022-08-17T15:32:40.838Z,34.30
2022-08-17T15:35:11.719Z,33.90
2022-08-17T15:37:40.162Z,31.43
2022-08-17T15:40:09.085Z,30.67
2022-08-17T15:42:36.642Z,31.03
2022-08-17T15:45:10.411Z,30.20
2022-08-17T15:47:37.531Z,27.93
2022-08-17T15:50:07.123Z,28.37
2022-08-17T15:52:40.102Z,27.63
2022-08-17T15:55:10.195Z,27.93
2022-08-17T15:57:37.152Z,26.70
2022-08-17T16:00:06.006Z,24.87
2022-08-17T16:03:15.106Z,27.00
2022-08-17T16:05:25.093Z,24.67
2022-08-17T16:07:53.008Z,23.50
2022-08-17T16:10:21.023Z,20.20
2022-08-17T16:12:49.654Z,20.87
2022-08-17T16:15:17.604Z,21.70
2022-08-17T16:17:44.427Z,21.63
2022-08-17T16:20:20.161Z,20.70
2022-08-17T16:22:50.214Z,27.37
2022-08-17T16:25:22.256Z,25.87
2022-08-17T16:27:53.600Z,31.30
2022-08-17T16:30:23.891Z,35.00
2022-08-17T16:32:53.013Z,33.47
2022-08-17T16:35:22.583Z,34.27
2022-08-17T16:37:49.403Z,38.97
2022-08-17T16:40:17.583Z,36.83
2022-08-17T16:42:48.334Z,36.47
2022-08-17T16:45:26.900Z,35.43
2022-08-17T16:47:54.911Z,37.90
2022-08-17T16:50:23.792Z,37.53
2022-08-17T16:52:51.339Z,37.90
2022-08-17T16:55:21.515Z,37.73
2022-08-17T16:57:50.353Z,36.40
2022-08-17T17:00:19.564Z,33.57
2022-08-17T17:02:48.212Z,33.10
2022-08-17T17:05:42.967Z,32.27
2022-08-17T17:08:25.542Z,33.17
2022-08-17T17:10:55.878Z,36.33
2022-08-17T17:13:36.674Z,35.60
2022-08-17T17:16:29.234Z,33.53
2022-08-17T17:19:07.697Z,33.40
2022-08-17T17:21:49.087Z,32.70
2022-08-17T17:24:47.123Z,31.67
2022-08-17T17:27:32.176Z,36.07
2022-08-17T17:30:15.226Z,35.00
2022-08-17T17:32:46.211Z,35.77
2022-08-17T17:35:57.506Z,31.97
2022-08-17T17:38:29.916Z,35.83
2022-08-17T17:41:06.776Z,34.27
2022-08-17T17:43:41.100Z,32.57
2022-08-17T17:46:28.330Z,32.20
2022-08-17T17:48:57.177Z,32.43
2022-08-17T17:52:06.928Z,33.07
2022-08-17T17:55:06.191Z,29.77
2022-08-17T17:57:32.953Z,30.60
2022-08-17T18:00:31.665Z,31.73
2022-08-17T18:03:16.727Z,28.70
2022-08-17T18:06:08.136Z,29.50
2022-08-17T18:08:49.212Z,27.80
2022-08-17T18:11:34.852Z,27.63
2022-08-17T18:14:17.227Z,28.37
2022-08-17T18:16:53.145Z,28.40
2022-08-17T18:19:20.784Z,29.83
2022-08-17T18:22:03.171Z,30.37
2022-08-17T18:24:33.815Z,30.50
2022-08-17T18:27:08.597Z,31.63
2022-08-17T18:29:46.921Z,30.73
2022-08-17T18:32:13.629Z,28.50
2022-08-17T18:34:48.697Z,25.00
2022-08-17T18:37:37.790Z,33.60
2022-08-17T18:40:17.068Z,31.60
2022-08-17T18:43:03.010Z,30.43
2022-08-17T18:45:40.973Z,29.00
2022-08-17T18:48:27.189Z,29.73
2022-08-17T18:51:01.483Z,29.60
2022-08-17T18:53:36.217Z,27.20
2022-08-17T18:56:37.419Z,28.13
2022-08-17T18:59:11.494Z,27.23
2022-08-17T19:01:52.338Z,29.23
2022-08-17T19:05:07.283Z,26.70
2022-08-17T19:07:40.704Z,25.60
2022-08-17T19:10:23.102Z,27.33
2022-08-17T19:13:12.705Z,28.47
2022-08-17T19:16:11.821Z,27.33
2022-08-17T19:19:05.871Z,28.57
2022-08-17T19:21:44.054Z,27.63
2022-08-17T19:24:23.402Z,27.83
2022-08-17T19:27:06.226Z,27.80
2022-08-17T19:29:42.933Z,28.90
2022-08-17T19:32:11.250Z,29.53
2022-08-17T19:34:39.645Z,28.47
2022-08-17T19:37:33.818Z,29.70
2022-08-17T19:40:24.477Z,26.67
2022-08-17T19:43:07.536Z,30.20
2022-08-17T19:45:45.141Z,29.60
2022-08-17T19:48:39.046Z,32.03
2022-08-17T19:51:15.543Z,29.70
2022-08-17T19:54:24.720Z,28.20
2022-08-17T19:57:18.277Z,28.50
2022-08-17T19:59:56.848Z,27.43
2022-08-17T20:02:47.390Z,28.43
2022-08-17T20:06:08.489Z,27.27
2022-08-17T20:08:31.483Z,28.03
2022-08-17T20:11:15.053Z,27.63
2022-08-17T20:13:46.530Z,28.90
2022-08-17T20:16:13.391Z,27.60
2022-08-17T20:18:47.634Z,28.53
2022-08-17T20:21:20.760Z,27.30
2022-08-17T20:23:47.528Z,27.87
2022-08-17T20:26:34.258Z,27.43
2022-08-17T20:29:16.733Z,27.93
2022-08-17T20:31:57.445Z,26.30
2022-08-17T20:34:33.634Z,27.80
2022-08-17T20:37:06.152Z,25.13
2022-08-17T20:39:43.067Z,26.63
2022-08-17T20:42:21.498Z,24.47
2022-08-17T20:44:51.498Z,24.60
2022-08-17T20:47:50.422Z,24.70
2022-08-17T20:50:33.496Z,26.57
2022-08-17T20:53:06.698Z,25.10
2022-08-17T20:55:39.322Z,25.87
2022-08-17T20:58:23.019Z,26.00
2022-08-17T21:01:14.516Z,26.10
2022-08-17T21:03:51.218Z,28.37
2022-08-17T21:06:21.173Z,25.57
2022-08-17T21:08:53.972Z,25.47
2022-08-17T21:12:02.945Z,25.93
2022-08-17T21:14:59.695Z,28.60
2022-08-17T21:17:48.962Z,26.30
2022-08-17T21:20:24.568Z,26.60
2022-08-17T21:23:27.263Z,26.37
2022-08-17T21:26:17.367Z,28.47
2022-08-17T21:29:30.860Z,26.87
2022-08-17T21:31:59.736Z,28.30
2022-08-17T21:34:39.335Z,27.53
2022-08-17T21:37:23.716Z,27.10
2022-08-17T21:40:22.771Z,28.03
2022-08-17T21:42:58.155Z,24.63
2022-08-17T21:45:36.667Z,26.73
2022-08-17T21:48:20.843Z,25.97
2022-08-17T21:50:59.092Z,29.47
2022-08-17T21:53:33.318Z,29.63
2022-08-17T21:56:00.742Z,35.60
2022-08-17T21:58:33.568Z,31.57
2022-08-17T22:01:38.933Z,32.50
2022-08-17T22:04:19.949Z,31.77
2022-08-17T22:06:54.204Z,32.77
2022-08-17T22:09:25.953Z,31.27
2022-08-17T22:12:20.029Z,29.23
2022-08-17T22:15:05.887Z,26.63
2022-08-17T22:17:36.435Z,28.20
2022-08-17T22:20:14.421Z,26.87
2022-08-17T22:23:08.831Z,27.40
2022-08-17T22:25:38.666Z,24.80
2022-08-17T22:28:10.773Z,25.90
2022-08-17T22:31:00.996Z,29.40
2022-08-17T22:33:39.521Z,29.20
2022-08-17T22:36:35.313Z,31.60
2022-08-17T22:39:26.185Z,29.30
2022-08-17T22:41:57.087Z,30.57
2022-08-17T22:44:36.368Z,30.73
2022-08-17T22:47:03.179Z,27.40
2022-08-17T22:49:32.769Z,26.57
2022-08-17T22:52:06.407Z,25.10
2022-08-17T22:54:52.517Z,27.00
2022-08-17T22:57:41.788Z,27.87
2022-08-17T23:00:47.388Z,29.00
2022-08-17T23:03:23.173Z,28.50
2022-08-17T23:06:08.292Z,28.07
2022-08-17T23:08:48.697Z,28.13
2022-08-17T23:11:15.661Z,27.47
2022-08-17T23:13:42.415Z,27.57
2022-08-17T23:16:09.226Z,25.83
2022-08-17T23:18:37.470Z,26.57
2022-08-17T23:21:05.647Z,26.20
2022-08-17T23:23:32.381Z,27.23
2022-08-17T23:25:59.100Z,27.50
2022-08-17T23:28:25.956Z,28.67
2022-08-17T23:30:52.719Z,30.07
2022-08-17T23:33:25.535Z,27.50
2022-08-17T23:35:53.710Z,30.70
2022-08-17T23:38:20.514Z,28.40
2022-08-17T23:40:47.236Z,30.80
2022-08-17T23:43:24.677Z,28.47
2022-08-17T23:45:54.219Z,28.47
2022-08-17T23:48:35.678Z,28.20
2022-08-17T23:51:14.441Z,28.20
2022-08-17T23:53:47.515Z,28.80
2022-08-17T23:56:15.227Z,29.30
2022-08-17T23:58:43.444Z,28.67
